sensor_id;sensor_type;location;lat;lon;timestamp;P1;durP1;ratioP1;P2;durP2;ratioP2
50417;SDS011;36346;48.280;14.292;2023-06-14T00:02:24;3.72;;;3.72;;
50417;SDS011;36346;48.280;14.292;2023-06-14T00:04:52;3.76;;;3.76;;
50417;SDS011;36346;48.280;14.292;2023-06-14T00:07:22;3.65;;;3.65;;
50417;SDS011;36346;48.280;14.292;2023-06-14T00:10:04;3.99;;;3.99;;
50417;SDS011;36346;48.280;14.292;2023-06-14T00:12:32;3.80;;;3.80;;
50417;SDS011;36346;48.280;14.292;2023-06-14T00:15:01;3.86;;;3.84;;
50417;SDS011;36346;48.280;14.292;2023-06-14T00:17:30;4.30;;;4.23;;
50417;SDS011;36346;48.280;14.292;2023-06-14T00:19:59;4.01;;;4.01;;
50417;SDS011;36346;48.280;14.292;2023-06-14T00:22:29;3.86;;;3.86;;
50417;SDS011;36346;48.280;14.292;2023-06-14T00:24:58;3.71;;;3.71;;
50417;SDS011;36346;48.280;14.292;2023-06-14T00:27:35;4.17;;;4.17;;
50417;SDS011;36346;48.280;14.292;2023-06-14T00:30:03;3.81;;;3.81;;
50417;SDS011;36346;48.280;14.292;2023-06-14T00:32:33;4.01;;;4.01;;
50417;SDS011;36346;48.280;14.292;2023-06-14T00:35:01;4.07;;;4.07;;
50417;SDS011;36346;48.280;14.292;2023-06-14T00:37:29;3.88;;;3.88;;
50417;SDS011;36346;48.280;14.292;2023-06-14T00:39:58;3.99;;;3.99;;
50417;SDS011;36346;48.280;14.292;2023-06-14T00:42:26;4.26;;;4.26;;
50417;SDS011;36346;48.280;14.292;2023-06-14T00:44:55;4.36;;;4.36;;
50417;SDS011;36346;48.280;14.292;2023-06-14T00:47:24;4.09;;;4.09;;
50417;SDS011;36346;48.280;14.292;2023-06-14T00:49:53;4.05;;;4.05;;
50417;SDS011;36346;48.280;14.292;2023-06-14T00:52:22;4.50;;;4.50;;
50417;SDS011;36346;48.280;14.292;2023-06-14T00:54:51;4.37;;;4.37;;
50417;SDS011;36346;48.280;14.292;2023-06-14T00:57:20;3.98;;;3.98;;
50417;SDS011;36346;48.280;14.292;2023-06-14T00:59:48;4.52;;;4.52;;
50417;SDS011;36346;48.280;14.292;2023-06-14T01:02:18;4.51;;;4.48;;
50417;SDS011;36346;48.280;14.292;2023-06-14T01:04:47;4.33;;;4.28;;
50417;SDS011;36346;48.280;14.292;2023-06-14T01:07:23;4.60;;;4.60;;
50417;SDS011;36346;48.280;14.292;2023-06-14T01:10:16;4.69;;;4.69;;
50417;SDS011;36346;48.280;14.292;2023-06-14T01:15:26;4.57;;;4.57;;
50417;SDS011;36346;48.280;14.292;2023-06-14T01:17:57;4.70;;;4.70;;
50417;SDS011;36346;48.280;14.292;2023-06-14T01:20:31;4.44;;;4.44;;
50417;SDS011;36346;48.280;14.292;2023-06-14T01:23:00;4.49;;;4.49;;
50417;SDS011;36346;48.280;14.292;2023-06-14T01:25:30;4.45;;;4.45;;
50417;SDS011;36346;48.280;14.292;2023-06-14T01:28:00;4.45;;;4.45;;
50417;SDS011;36346;48.280;14.292;2023-06-14T01:30:31;4.48;;;4.48;;
50417;SDS011;36346;48.280;14.292;2023-06-14T01:33:02;4.90;;;4.90;;
50417;SDS011;36346;48.280;14.292;2023-06-14T01:35:32;4.90;;;4.90;;
50417;SDS011;36346;48.280;14.292;2023-06-14T01:38:02;4.89;;;4.89;;
50417;SDS011;36346;48.280;14.292;2023-06-14T01:40:31;4.63;;;4.63;;
50417;SDS011;36346;48.280;14.292;2023-06-14T01:43:02;4.57;;;4.57;;
50417;SDS011;36346;48.280;14.292;2023-06-14T01:45:32;4.71;;;4.71;;
50417;SDS011;36346;48.280;14.292;2023-06-14T01:48:01;4.67;;;4.67;;
50417;SDS011;36346;48.280;14.292;2023-06-14T01:50:29;4.74;;;4.74;;
50417;SDS011;36346;48.280;14.292;2023-06-14T01:52:58;4.99;;;4.99;;
50417;SDS011;36346;48.280;14.292;2023-06-14T01:55:26;4.38;;;4.38;;
50417;SDS011;36346;48.280;14.292;2023-06-14T01:57:54;4.57;;;4.57;;
50417;SDS011;36346;48.280;14.292;2023-06-14T02:00:23;4.57;;;4.57;;
50417;SDS011;36346;48.280;14.292;2023-06-14T02:02:52;4.58;;;4.58;;
50417;SDS011;36346;48.280;14.292;2023-06-14T02:05:21;4.51;;;4.51;;
50417;SDS011;36346;48.280;14.292;2023-06-14T02:07:49;4.89;;;4.89;;
50417;SDS011;36346;48.280;14.292;2023-06-14T02:10:18;4.63;;;4.63;;
50417;SDS011;36346;48.280;14.292;2023-06-14T02:12:47;4.90;;;4.90;;
50417;SDS011;36346;48.280;14.292;2023-06-14T02:15:15;4.91;;;4.91;;
50417;SDS011;36346;48.280;14.292;2023-06-14T02:17:47;4.67;;;4.67;;
50417;SDS011;36346;48.280;14.292;2023-06-14T02:20:17;4.73;;;4.73;;
50417;SDS011;36346;48.280;14.292;2023-06-14T02:22:45;5.05;;;5.05;;
50417;SDS011;36346;48.280;14.292;2023-06-14T02:25:13;4.91;;;4.91;;
50417;SDS011;36346;48.280;14.292;2023-06-14T02:27:41;5.21;;;5.21;;
50417;SDS011;36346;48.280;14.292;2023-06-14T02:30:11;5.13;;;5.13;;
50417;SDS011;36346;48.280;14.292;2023-06-14T02:32:40;4.99;;;4.99;;
50417;SDS011;36346;48.280;14.292;2023-06-14T02:35:08;5.10;;;5.10;;
50417;SDS011;36346;48.280;14.292;2023-06-14T02:37:36;5.07;;;5.06;;
50417;SDS011;36346;48.280;14.292;2023-06-14T02:40:04;4.74;;;4.74;;
50417;SDS011;36346;48.280;14.292;2023-06-14T02:42:33;5.12;;;5.12;;
50417;SDS011;36346;48.280;14.292;2023-06-14T02:45:04;5.11;;;5.11;;
50417;SDS011;36346;48.280;14.292;2023-06-14T02:47:32;5.48;;;5.48;;
50417;SDS011;36346;48.280;14.292;2023-06-14T02:50:00;5.16;;;5.16;;
50417;SDS011;36346;48.280;14.292;2023-06-14T02:52:28;5.19;;;5.19;;
50417;SDS011;36346;48.280;14.292;2023-06-14T02:54:57;5.52;;;5.52;;
50417;SDS011;36346;48.280;14.292;2023-06-14T02:57:25;5.19;;;5.19;;
50417;SDS011;36346;48.280;14.292;2023-06-14T02:59:53;5.30;;;5.30;;
50417;SDS011;36346;48.280;14.292;2023-06-14T03:02:22;5.19;;;5.19;;
50417;SDS011;36346;48.280;14.292;2023-06-14T03:04:50;5.04;;;5.04;;
50417;SDS011;36346;48.280;14.292;2023-06-14T03:07:20;5.20;;;5.20;;
50417;SDS011;36346;48.280;14.292;2023-06-14T03:09:51;7.44;;;7.44;;
50417;SDS011;36346;48.280;14.292;2023-06-14T03:12:20;7.48;;;7.46;;
50417;SDS011;36346;48.280;14.292;2023-06-14T03:14:48;7.05;;;7.04;;
50417;SDS011;36346;48.280;14.292;2023-06-14T03:17:21;7.06;;;7.06;;
50417;SDS011;36346;48.280;14.292;2023-06-14T03:19:50;5.38;;;5.37;;
50417;SDS011;36346;48.280;14.292;2023-06-14T03:22:18;9.04;;;9.02;;
50417;SDS011;36346;48.280;14.292;2023-06-14T03:24:46;5.78;;;5.77;;
50417;SDS011;36346;48.280;14.292;2023-06-14T03:27:15;5.40;;;5.40;;
50417;SDS011;36346;48.280;14.292;2023-06-14T03:29:46;5.47;;;5.47;;
50417;SDS011;36346;48.280;14.292;2023-06-14T03:32:14;5.41;;;5.41;;
50417;SDS011;36346;48.280;14.292;2023-06-14T03:34:44;5.51;;;5.51;;
50417;SDS011;36346;48.280;14.292;2023-06-14T03:37:20;5.54;;;5.54;;
50417;SDS011;36346;48.280;14.292;2023-06-14T03:39:48;5.67;;;5.67;;
50417;SDS011;36346;48.280;14.292;2023-06-14T03:42:21;5.41;;;5.41;;
50417;SDS011;36346;48.280;14.292;2023-06-14T03:44:49;5.43;;;5.43;;
50417;SDS011;36346;48.280;14.292;2023-06-14T03:47:20;5.52;;;5.52;;
50417;SDS011;36346;48.280;14.292;2023-06-14T03:49:48;5.49;;;5.49;;
50417;SDS011;36346;48.280;14.292;2023-06-14T03:52:16;5.57;;;5.56;;
50417;SDS011;36346;48.280;14.292;2023-06-14T03:54:46;5.59;;;5.59;;
50417;SDS011;36346;48.280;14.292;2023-06-14T03:57:18;5.65;;;5.65;;
50417;SDS011;36346;48.280;14.292;2023-06-14T03:59:49;5.65;;;5.65;;
50417;SDS011;36346;48.280;14.292;2023-06-14T04:02:17;5.51;;;5.51;;
50417;SDS011;36346;48.280;14.292;2023-06-14T04:04:46;5.63;;;5.62;;
50417;SDS011;36346;48.280;14.292;2023-06-14T04:07:15;5.76;;;5.76;;
50417;SDS011;36346;48.280;14.292;2023-06-14T04:09:47;5.58;;;5.58;;
50417;SDS011;36346;48.280;14.292;2023-06-14T04:12:16;5.78;;;5.78;;
50417;SDS011;36346;48.280;14.292;2023-06-14T04:14:44;5.45;;;5.45;;
50417;SDS011;36346;48.280;14.292;2023-06-14T04:17:12;5.62;;;5.62;;
50417;SDS011;36346;48.280;14.292;2023-06-14T04:19:44;6.04;;;6.04;;
50417;SDS011;36346;48.280;14.292;2023-06-14T04:22:13;5.72;;;5.72;;
50417;SDS011;36346;48.280;14.292;2023-06-14T04:24:41;6.62;;;6.62;;
50417;SDS011;36346;48.280;14.292;2023-06-14T04:27:11;6.05;;;6.05;;
50417;SDS011;36346;48.280;14.292;2023-06-14T04:29:39;6.06;;;6.06;;
50417;SDS011;36346;48.280;14.292;2023-06-14T04:32:11;6.38;;;6.38;;
50417;SDS011;36346;48.280;14.292;2023-06-14T04:34:41;6.28;;;6.28;;
50417;SDS011;36346;48.280;14.292;2023-06-14T04:37:11;6.37;;;6.35;;
50417;SDS011;36346;48.280;14.292;2023-06-14T04:39:42;5.81;;;5.80;;
50417;SDS011;36346;48.280;14.292;2023-06-14T04:42:10;6.01;;;6.01;;
50417;SDS011;36346;48.280;14.292;2023-06-14T04:44:41;5.86;;;5.86;;
50417;SDS011;36346;48.280;14.292;2023-06-14T04:47:12;5.95;;;5.95;;
50417;SDS011;36346;48.280;14.292;2023-06-14T04:49:42;6.29;;;6.29;;
50417;SDS011;36346;48.280;14.292;2023-06-14T04:52:10;5.78;;;5.78;;
50417;SDS011;36346;48.280;14.292;2023-06-14T04:54:43;5.96;;;5.96;;
50417;SDS011;36346;48.280;14.292;2023-06-14T04:57:16;5.86;;;5.86;;
50417;SDS011;36346;48.280;14.292;2023-06-14T04:59:48;5.86;;;5.86;;
50417;SDS011;36346;48.280;14.292;2023-06-14T05:02:24;6.36;;;6.36;;
50417;SDS011;36346;48.280;14.292;2023-06-14T05:04:54;6.37;;;6.37;;
50417;SDS011;36346;48.280;14.292;2023-06-14T05:07:24;6.36;;;6.35;;
50417;SDS011;36346;48.280;14.292;2023-06-14T05:09:53;5.96;;;5.91;;
50417;SDS011;36346;48.280;14.292;2023-06-14T05:12:21;6.05;;;6.02;;
50417;SDS011;36346;48.280;14.292;2023-06-14T05:14:51;5.84;;;5.84;;
50417;SDS011;36346;48.280;14.292;2023-06-14T05:17:21;6.21;;;6.21;;
50417;SDS011;36346;48.280;14.292;2023-06-14T05:19:50;7.01;;;7.01;;
50417;SDS011;36346;48.280;14.292;2023-06-14T05:22:18;6.86;;;6.86;;
50417;SDS011;36346;48.280;14.292;2023-06-14T05:24:46;7.25;;;7.25;;
50417;SDS011;36346;48.280;14.292;2023-06-14T05:27:16;7.52;;;7.52;;
50417;SDS011;36346;48.280;14.292;2023-06-14T05:29:44;7.84;;;7.84;;
50417;SDS011;36346;48.280;14.292;2023-06-14T05:32:12;8.01;;;8.00;;
50417;SDS011;36346;48.280;14.292;2023-06-14T05:34:40;8.24;;;8.24;;
50417;SDS011;36346;48.280;14.292;2023-06-14T05:37:08;8.28;;;8.28;;
50417;SDS011;36346;48.280;14.292;2023-06-14T05:39:36;9.25;;;9.25;;
50417;SDS011;36346;48.280;14.292;2023-06-14T05:42:04;8.93;;;8.93;;
50417;SDS011;36346;48.280;14.292;2023-06-14T05:44:33;8.82;;;8.82;;
50417;SDS011;36346;48.280;14.292;2023-06-14T05:47:01;8.14;;;8.14;;
50417;SDS011;36346;48.280;14.292;2023-06-14T05:49:29;7.61;;;7.61;;
50417;SDS011;36346;48.280;14.292;2023-06-14T05:51:58;7.36;;;7.36;;
50417;SDS011;36346;48.280;14.292;2023-06-14T05:54:26;7.52;;;7.52;;
50417;SDS011;36346;48.280;14.292;2023-06-14T05:56:54;7.51;;;7.51;;
50417;SDS011;36346;48.280;14.292;2023-06-14T05:59:22;6.45;;;6.45;;
50417;SDS011;36346;48.280;14.292;2023-06-14T06:01:50;6.65;;;6.65;;
50417;SDS011;36346;48.280;14.292;2023-06-14T06:04:18;7.18;;;7.18;;
50417;SDS011;36346;48.280;14.292;2023-06-14T06:06:47;7.25;;;7.25;;
50417;SDS011;36346;48.280;14.292;2023-06-14T06:09:15;7.28;;;7.28;;
50417;SDS011;36346;48.280;14.292;2023-06-14T06:11:43;7.37;;;7.37;;
50417;SDS011;36346;48.280;14.292;2023-06-14T06:14:21;7.86;;;7.86;;
50417;SDS011;36346;48.280;14.292;2023-06-14T06:16:49;7.43;;;7.43;;
50417;SDS011;36346;48.280;14.292;2023-06-14T06:19:17;7.14;;;7.14;;
50417;SDS011;36346;48.280;14.292;2023-06-14T06:21:45;7.26;;;7.26;;
50417;SDS011;36346;48.280;14.292;2023-06-14T06:24:13;7.92;;;7.92;;
50417;SDS011;36346;48.280;14.292;2023-06-14T06:26:41;8.76;;;8.75;;
50417;SDS011;36346;48.280;14.292;2023-06-14T06:29:09;9.61;;;9.60;;
50417;SDS011;36346;48.280;14.292;2023-06-14T06:31:37;8.51;;;8.51;;
50417;SDS011;36346;48.280;14.292;2023-06-14T06:34:05;8.03;;;8.03;;
50417;SDS011;36346;48.280;14.292;2023-06-14T06:36:36;7.48;;;7.48;;
50417;SDS011;36346;48.280;14.292;2023-06-14T06:39:04;7.04;;;7.03;;
50417;SDS011;36346;48.280;14.292;2023-06-14T06:41:38;7.82;;;7.81;;
50417;SDS011;36346;48.280;14.292;2023-06-14T06:44:07;7.33;;;7.33;;
50417;SDS011;36346;48.280;14.292;2023-06-14T06:46:35;7.68;;;7.68;;
50417;SDS011;36346;48.280;14.292;2023-06-14T06:49:08;7.77;;;7.77;;
50417;SDS011;36346;48.280;14.292;2023-06-14T06:51:36;7.34;;;7.34;;
50417;SDS011;36346;48.280;14.292;2023-06-14T06:54:04;8.51;;;8.51;;
50417;SDS011;36346;48.280;14.292;2023-06-14T06:56:33;8.61;;;8.61;;
50417;SDS011;36346;48.280;14.292;2023-06-14T06:59:02;8.40;;;8.40;;
50417;SDS011;36346;48.280;14.292;2023-06-14T07:01:30;8.74;;;8.74;;
50417;SDS011;36346;48.280;14.292;2023-06-14T07:04:01;7.83;;;7.83;;
50417;SDS011;36346;48.280;14.292;2023-06-14T07:06:30;7.93;;;7.93;;
50417;SDS011;36346;48.280;14.292;2023-06-14T07:08:59;8.08;;;8.08;;
50417;SDS011;36346;48.280;14.292;2023-06-14T07:11:29;7.72;;;7.72;;
50417;SDS011;36346;48.280;14.292;2023-06-14T07:13:57;6.85;;;6.85;;
50417;SDS011;36346;48.280;14.292;2023-06-14T07:16:25;7.19;;;7.19;;
50417;SDS011;36346;48.280;14.292;2023-06-14T07:18:53;7.40;;;7.40;;
50417;SDS011;36346;48.280;14.292;2023-06-14T07:21:21;6.87;;;6.87;;
50417;SDS011;36346;48.280;14.292;2023-06-14T07:23:49;7.32;;;7.32;;
50417;SDS011;36346;48.280;14.292;2023-06-14T07:26:17;6.46;;;6.46;;
50417;SDS011;36346;48.280;14.292;2023-06-14T07:28:46;6.64;;;6.64;;
50417;SDS011;36346;48.280;14.292;2023-06-14T07:31:15;7.25;;;7.25;;
50417;SDS011;36346;48.280;14.292;2023-06-14T07:33:43;6.46;;;6.46;;
50417;SDS011;36346;48.280;14.292;2023-06-14T07:36:12;8.37;;;8.37;;
50417;SDS011;36346;48.280;14.292;2023-06-14T07:38:40;6.53;;;6.53;;
50417;SDS011;36346;48.280;14.292;2023-06-14T07:41:08;6.15;;;6.15;;
50417;SDS011;36346;48.280;14.292;2023-06-14T07:43:36;6.81;;;6.81;;
50417;SDS011;36346;48.280;14.292;2023-06-14T07:46:04;7.20;;;7.20;;
50417;SDS011;36346;48.280;14.292;2023-06-14T07:48:34;6.97;;;6.97;;
50417;SDS011;36346;48.280;14.292;2023-06-14T07:51:03;6.67;;;6.67;;
50417;SDS011;36346;48.280;14.292;2023-06-14T07:53:31;7.81;;;7.81;;
50417;SDS011;36346;48.280;14.292;2023-06-14T07:55:59;7.92;;;7.92;;
50417;SDS011;36346;48.280;14.292;2023-06-14T07:58:27;8.09;;;8.09;;
50417;SDS011;36346;48.280;14.292;2023-06-14T08:00:55;7.34;;;7.34;;
50417;SDS011;36346;48.280;14.292;2023-06-14T08:03:24;6.69;;;6.69;;
50417;SDS011;36346;48.280;14.292;2023-06-14T08:05:54;7.13;;;7.13;;
50417;SDS011;36346;48.280;14.292;2023-06-14T08:08:23;7.02;;;7.02;;
50417;SDS011;36346;48.280;14.292;2023-06-14T08:10:51;7.86;;;7.86;;
50417;SDS011;36346;48.280;14.292;2023-06-14T08:13:20;6.84;;;6.84;;
50417;SDS011;36346;48.280;14.292;2023-06-14T08:15:48;6.37;;;6.37;;
50417;SDS011;36346;48.280;14.292;2023-06-14T08:18:17;6.89;;;6.89;;
50417;SDS011;36346;48.280;14.292;2023-06-14T08:20:45;7.21;;;7.21;;
50417;SDS011;36346;48.280;14.292;2023-06-14T08:23:13;7.56;;;7.56;;
50417;SDS011;36346;48.280;14.292;2023-06-14T08:25:41;7.95;;;7.95;;
50417;SDS011;36346;48.280;14.292;2023-06-14T08:28:09;7.26;;;7.26;;
50417;SDS011;36346;48.280;14.292;2023-06-14T08:30:37;7.06;;;7.06;;
50417;SDS011;36346;48.280;14.292;2023-06-14T08:33:05;6.74;;;6.74;;
50417;SDS011;36346;48.280;14.292;2023-06-14T08:35:44;7.53;;;7.53;;
50417;SDS011;36346;48.280;14.292;2023-06-14T08:38:12;7.31;;;7.31;;
50417;SDS011;36346;48.280;14.292;2023-06-14T08:40:41;6.25;;;6.25;;
50417;SDS011;36346;48.280;14.292;2023-06-14T08:43:10;6.22;;;6.22;;
50417;SDS011;36346;48.280;14.292;2023-06-14T08:45:38;6.10;;;6.10;;
50417;SDS011;36346;48.280;14.292;2023-06-14T08:48:07;5.99;;;5.99;;
50417;SDS011;36346;48.280;14.292;2023-06-14T08:50:36;5.95;;;5.95;;
50417;SDS011;36346;48.280;14.292;2023-06-14T08:53:09;6.09;;;6.09;;
50417;SDS011;36346;48.280;14.292;2023-06-14T08:55:47;6.12;;;6.12;;
50417;SDS011;36346;48.280;14.292;2023-06-14T08:58:15;6.00;;;6.00;;
50417;SDS011;36346;48.280;14.292;2023-06-14T09:00:44;6.47;;;6.47;;
50417;SDS011;36346;48.280;14.292;2023-06-14T09:03:12;6.40;;;6.40;;
50417;SDS011;36346;48.280;14.292;2023-06-14T09:05:41;6.22;;;6.22;;
50417;SDS011;36346;48.280;14.292;2023-06-14T09:08:10;6.03;;;6.03;;
50417;SDS011;36346;48.280;14.292;2023-06-14T09:10:39;6.02;;;6.02;;
50417;SDS011;36346;48.280;14.292;2023-06-14T09:13:08;5.82;;;5.82;;
50417;SDS011;36346;48.280;14.292;2023-06-14T09:15:36;6.01;;;6.01;;
50417;SDS011;36346;48.280;14.292;2023-06-14T09:18:04;6.18;;;6.18;;
50417;SDS011;36346;48.280;14.292;2023-06-14T09:20:34;6.34;;;6.34;;
50417;SDS011;36346;48.280;14.292;2023-06-14T09:23:02;5.80;;;5.80;;
50417;SDS011;36346;48.280;14.292;2023-06-14T09:25:32;5.80;;;5.80;;
50417;SDS011;36346;48.280;14.292;2023-06-14T09:28:09;6.40;;;6.40;;
50417;SDS011;36346;48.280;14.292;2023-06-14T09:30:38;6.30;;;6.30;;
50417;SDS011;36346;48.280;14.292;2023-06-14T09:33:06;5.87;;;5.87;;
50417;SDS011;36346;48.280;14.292;2023-06-14T09:35:35;5.67;;;5.67;;
50417;SDS011;36346;48.280;14.292;2023-06-14T09:38:03;5.56;;;5.56;;
50417;SDS011;36346;48.280;14.292;2023-06-14T09:40:35;5.92;;;5.92;;
50417;SDS011;36346;48.280;14.292;2023-06-14T09:43:05;5.88;;;5.88;;
50417;SDS011;36346;48.280;14.292;2023-06-14T09:45:38;5.43;;;5.43;;
50417;SDS011;36346;48.280;14.292;2023-06-14T09:48:07;5.95;;;5.95;;
50417;SDS011;36346;48.280;14.292;2023-06-14T09:50:39;6.29;;;6.29;;
50417;SDS011;36346;48.280;14.292;2023-06-14T09:53:07;6.96;;;6.96;;
50417;SDS011;36346;48.280;14.292;2023-06-14T09:55:39;5.91;;;5.91;;
50417;SDS011;36346;48.280;14.292;2023-06-14T09:58:09;6.03;;;6.03;;
50417;SDS011;36346;48.280;14.292;2023-06-14T10:00:39;6.36;;;6.36;;
50417;SDS011;36346;48.280;14.292;2023-06-14T10:03:14;6.33;;;6.33;;
50417;SDS011;36346;48.280;14.292;2023-06-14T10:05:48;5.37;;;5.37;;
50417;SDS011;36346;48.280;14.292;2023-06-14T10:08:18;5.64;;;5.64;;
50417;SDS011;36346;48.280;14.292;2023-06-14T10:10:47;5.67;;;5.67;;
50417;SDS011;36346;48.280;14.292;2023-06-14T10:13:16;6.15;;;6.15;;
50417;SDS011;36346;48.280;14.292;2023-06-14T10:21:50;6.29;;;6.29;;
50417;SDS011;36346;48.280;14.292;2023-06-14T10:24:47;5.81;;;5.81;;
50417;SDS011;36346;48.280;14.292;2023-06-14T10:27:16;5.25;;;5.25;;
50417;SDS011;36346;48.280;14.292;2023-06-14T10:32:24;5.84;;;5.84;;
50417;SDS011;36346;48.280;14.292;2023-06-14T10:34:53;5.64;;;5.64;;
50417;SDS011;36346;48.280;14.292;2023-06-14T10:37:23;5.34;;;5.34;;
50417;SDS011;36346;48.280;14.292;2023-06-14T10:39:52;5.91;;;5.91;;
50417;SDS011;36346;48.280;14.292;2023-06-14T10:42:21;6.24;;;6.24;;
50417;SDS011;36346;48.280;14.292;2023-06-14T10:44:54;6.64;;;6.64;;
50417;SDS011;36346;48.280;14.292;2023-06-14T10:52:31;5.75;;;5.75;;
50417;SDS011;36346;48.280;14.292;2023-06-14T10:55:13;6.11;;;6.11;;
50417;SDS011;36346;48.280;14.292;2023-06-14T10:57:44;5.73;;;5.73;;
50417;SDS011;36346;48.280;14.292;2023-06-14T11:00:17;5.01;;;5.01;;
50417;SDS011;36346;48.280;14.292;2023-06-14T11:05:50;5.59;;;5.59;;
50417;SDS011;36346;48.280;14.292;2023-06-14T11:11:07;5.15;;;5.15;;
50417;SDS011;36346;48.280;14.292;2023-06-14T11:13:38;5.11;;;5.11;;
50417;SDS011;36346;48.280;14.292;2023-06-14T11:16:14;5.32;;;5.32;;
50417;SDS011;36346;48.280;14.292;2023-06-14T11:18:43;5.37;;;5.37;;
50417;SDS011;36346;48.280;14.292;2023-06-14T11:21:16;5.75;;;5.75;;
50417;SDS011;36346;48.280;14.292;2023-06-14T11:23:52;6.12;;;6.12;;
50417;SDS011;36346;48.280;14.292;2023-06-14T11:26:28;5.61;;;5.61;;
50417;SDS011;36346;48.280;14.292;2023-06-14T11:28:58;5.11;;;5.11;;
50417;SDS011;36346;48.280;14.292;2023-06-14T11:31:27;5.35;;;5.35;;
50417;SDS011;36346;48.280;14.292;2023-06-14T11:34:00;5.40;;;5.40;;
50417;SDS011;36346;48.280;14.292;2023-06-14T11:36:28;5.58;;;5.58;;
50417;SDS011;36346;48.280;14.292;2023-06-14T11:38:59;5.28;;;5.28;;
50417;SDS011;36346;48.280;14.292;2023-06-14T11:41:37;5.47;;;5.47;;
50417;SDS011;36346;48.280;14.292;2023-06-14T11:44:07;5.52;;;5.52;;
50417;SDS011;36346;48.280;14.292;2023-06-14T11:46:35;5.66;;;5.66;;
50417;SDS011;36346;48.280;14.292;2023-06-14T11:49:04;5.42;;;5.42;;
50417;SDS011;36346;48.280;14.292;2023-06-14T11:51:34;5.32;;;5.32;;
50417;SDS011;36346;48.280;14.292;2023-06-14T11:54:03;5.38;;;5.38;;
50417;SDS011;36346;48.280;14.292;2023-06-14T11:56:32;5.99;;;5.99;;
50417;SDS011;36346;48.280;14.292;2023-06-14T11:59:02;6.39;;;6.39;;
50417;SDS011;36346;48.280;14.292;2023-06-14T12:01:31;6.68;;;6.68;;
50417;SDS011;36346;48.280;14.292;2023-06-14T12:03:59;7.29;;;7.29;;
50417;SDS011;36346;48.280;14.292;2023-06-14T12:06:29;7.40;;;7.40;;
50417;SDS011;36346;48.280;14.292;2023-06-14T12:09:07;7.02;;;7.02;;
50417;SDS011;36346;48.280;14.292;2023-06-14T12:11:41;7.17;;;7.17;;
50417;SDS011;36346;48.280;14.292;2023-06-14T12:14:09;6.86;;;6.86;;
50417;SDS011;36346;48.280;14.292;2023-06-14T12:16:39;7.47;;;7.47;;
50417;SDS011;36346;48.280;14.292;2023-06-14T12:19:11;8.26;;;8.26;;
50417;SDS011;36346;48.280;14.292;2023-06-14T12:21:46;8.03;;;8.03;;
50417;SDS011;36346;48.280;14.292;2023-06-14T12:24:16;7.33;;;7.33;;
50417;SDS011;36346;48.280;14.292;2023-06-14T12:26:45;6.86;;;6.86;;
50417;SDS011;36346;48.280;14.292;2023-06-14T12:29:13;6.00;;;6.00;;
50417;SDS011;36346;48.280;14.292;2023-06-14T12:31:41;5.85;;;5.85;;
50417;SDS011;36346;48.280;14.292;2023-06-14T12:34:09;6.10;;;6.10;;
50417;SDS011;36346;48.280;14.292;2023-06-14T12:36:38;6.07;;;6.07;;
50417;SDS011;36346;48.280;14.292;2023-06-14T12:39:12;6.39;;;6.39;;
50417;SDS011;36346;48.280;14.292;2023-06-14T12:41:41;6.99;;;6.99;;
50417;SDS011;36346;48.280;14.292;2023-06-14T12:44:12;6.37;;;6.37;;
50417;SDS011;36346;48.280;14.292;2023-06-14T12:46:43;6.56;;;6.56;;
50417;SDS011;36346;48.280;14.292;2023-06-14T12:49:12;6.41;;;6.41;;
50417;SDS011;36346;48.280;14.292;2023-06-14T12:51:40;5.83;;;5.83;;
50417;SDS011;36346;48.280;14.292;2023-06-14T12:54:08;5.76;;;5.76;;
50417;SDS011;36346;48.280;14.292;2023-06-14T12:56:36;6.10;;;6.10;;
50417;SDS011;36346;48.280;14.292;2023-06-14T12:59:04;6.67;;;6.67;;
50417;SDS011;36346;48.280;14.292;2023-06-14T13:01:34;6.73;;;6.73;;
50417;SDS011;36346;48.280;14.292;2023-06-14T13:04:02;6.72;;;6.72;;
50417;SDS011;36346;48.280;14.292;2023-06-14T13:06:30;6.38;;;6.38;;
50417;SDS011;36346;48.280;14.292;2023-06-14T13:08:59;6.46;;;6.46;;
50417;SDS011;36346;48.280;14.292;2023-06-14T13:11:28;6.12;;;6.12;;
50417;SDS011;36346;48.280;14.292;2023-06-14T13:13:56;6.31;;;6.31;;
50417;SDS011;36346;48.280;14.292;2023-06-14T13:16:24;6.84;;;6.84;;
50417;SDS011;36346;48.280;14.292;2023-06-14T13:18:53;6.73;;;6.73;;
50417;SDS011;36346;48.280;14.292;2023-06-14T13:21:21;6.42;;;6.42;;
50417;SDS011;36346;48.280;14.292;2023-06-14T13:23:49;6.48;;;6.48;;
50417;SDS011;36346;48.280;14.292;2023-06-14T13:26:16;6.51;;;6.51;;
50417;SDS011;36346;48.280;14.292;2023-06-14T13:28:46;6.82;;;6.82;;
50417;SDS011;36346;48.280;14.292;2023-06-14T13:31:14;6.17;;;6.17;;
50417;SDS011;36346;48.280;14.292;2023-06-14T13:33:42;6.54;;;6.54;;
50417;SDS011;36346;48.280;14.292;2023-06-14T13:36:10;6.70;;;6.70;;
50417;SDS011;36346;48.280;14.292;2023-06-14T13:38:38;7.43;;;7.43;;
50417;SDS011;36346;48.280;14.292;2023-06-14T13:41:06;6.86;;;6.86;;
50417;SDS011;36346;48.280;14.292;2023-06-14T13:43:34;6.05;;;6.05;;
50417;SDS011;36346;48.280;14.292;2023-06-14T13:46:02;5.93;;;5.93;;
50417;SDS011;36346;48.280;14.292;2023-06-14T13:48:30;6.07;;;6.07;;
50417;SDS011;36346;48.280;14.292;2023-06-14T14:40:51;4.98;;;4.98;;
50417;SDS011;36346;48.280;14.292;2023-06-14T14:43:20;5.09;;;5.09;;
50417;SDS011;36346;48.280;14.292;2023-06-14T14:45:48;6.78;;;6.78;;
50417;SDS011;36346;48.280;14.292;2023-06-14T14:48:16;7.63;;;7.63;;
50417;SDS011;36346;48.280;14.292;2023-06-14T14:50:44;14.07;;;14.07;;
50417;SDS011;36346;48.280;14.292;2023-06-14T14:53:13;7.00;;;6.97;;
50417;SDS011;36346;48.280;14.292;2023-06-14T14:55:41;6.16;;;6.16;;
50417;SDS011;36346;48.280;14.292;2023-06-14T14:58:09;5.43;;;5.43;;
50417;SDS011;36346;48.280;14.292;2023-06-14T15:00:39;5.44;;;5.44;;
50417;SDS011;36346;48.280;14.292;2023-06-14T15:03:07;5.04;;;5.04;;
50417;SDS011;36346;48.280;14.292;2023-06-14T15:05:35;5.59;;;5.59;;
50417;SDS011;36346;48.280;14.292;2023-06-14T15:08:05;5.83;;;5.83;;
50417;SDS011;36346;48.280;14.292;2023-06-14T15:10:39;5.60;;;5.60;;
50417;SDS011;36346;48.280;14.292;2023-06-14T15:13:10;5.07;;;5.07;;
50417;SDS011;36346;48.280;14.292;2023-06-14T15:15:38;5.01;;;5.01;;
50417;SDS011;36346;48.280;14.292;2023-06-14T15:18:06;4.91;;;4.91;;
50417;SDS011;36346;48.280;14.292;2023-06-14T15:20:35;4.67;;;4.67;;
50417;SDS011;36346;48.280;14.292;2023-06-14T15:23:04;5.09;;;5.09;;
50417;SDS011;36346;48.280;14.292;2023-06-14T15:25:33;4.98;;;4.98;;
50417;SDS011;36346;48.280;14.292;2023-06-14T15:28:01;5.03;;;5.03;;
50417;SDS011;36346;48.280;14.292;2023-06-14T15:30:34;5.60;;;5.60;;
50417;SDS011;36346;48.280;14.292;2023-06-14T15:33:02;6.55;;;6.55;;
50417;SDS011;36346;48.280;14.292;2023-06-14T15:35:30;5.28;;;5.28;;
50417;SDS011;36346;48.280;14.292;2023-06-14T15:37:58;5.21;;;5.21;;
50417;SDS011;36346;48.280;14.292;2023-06-14T15:40:25;5.00;;;5.00;;
50417;SDS011;36346;48.280;14.292;2023-06-14T15:42:54;5.42;;;5.42;;
50417;SDS011;36346;48.280;14.292;2023-06-14T15:45:22;5.14;;;5.14;;
50417;SDS011;36346;48.280;14.292;2023-06-14T15:47:50;4.96;;;4.96;;
50417;SDS011;36346;48.280;14.292;2023-06-14T15:50:18;5.35;;;5.35;;
50417;SDS011;36346;48.280;14.292;2023-06-14T15:52:46;5.17;;;5.17;;
50417;SDS011;36346;48.280;14.292;2023-06-14T15:55:18;5.92;;;5.92;;
50417;SDS011;36346;48.280;14.292;2023-06-14T15:57:46;5.70;;;5.70;;
50417;SDS011;36346;48.280;14.292;2023-06-14T16:00:14;5.28;;;5.28;;